Time;durP1;ratioP1;P1;durP2;ratioP2;P2;SDS_P1;SDS_P2;PMS_P1;PMS_P2;Temp;Humidity;BMP_temperature;BMP_pressure;BME280_temperature;BME280_humidity;BME280_pressure;Samples;Min_cycle;Max_cycle;Signal;HPM_P1;HPM_P2
2022/02/18 00:01:31;;;;;;;;;7.50;5.50;;;;;14.52;52.49;100968.19;4990508;28;45318;-73
2022/02/18 00:04:00;;;;;;;;;6.25;5.50;;;;;14.52;52.42;100965.50;5015324;28;45864;-73
2022/02/18 00:06:25;;;;;;;;;6.00;5.75;;;;;14.56;52.40;100959.03;5020803;28;45407;-73
2022/02/18 00:08:51;;;;;;;;;8.25;6.00;;;;;14.52;52.50;100946.69;5020088;28;45337;-74
2022/02/18 00:11:17;;;;;;;;;9.00;6.00;;;;;14.52;52.73;100947.56;5017605;28;45740;-73
2022/02/18 00:13:43;;;;;;;;;8.50;5.50;;;;;14.44;52.48;100945.22;5009034;28;45577;-74
2022/02/18 00:16:08;;;;;;;;;5.00;5.00;;;;;14.51;52.99;100956.56;5020914;28;45427;-74
2022/02/18 00:18:34;;;;;;;;;7.00;7.00;;;;;14.53;52.75;100953.78;5003506;28;45808;-73
2022/02/18 00:20:59;;;;;;;;;9.25;5.75;;;;;14.50;52.79;100951.25;5015613;28;45312;-74
2022/02/18 00:23:25;;;;;;;;;8.00;4.50;;;;;14.40;53.08;100932.88;5020167;28;45557;-73
2022/02/18 00:25:51;;;;;;;;;6.25;5.25;;;;;14.51;53.24;100947.63;5020354;28;45394;-73
2022/02/18 00:28:17;;;;;;;;;6.75;4.25;;;;;14.38;53.37;100921.34;5008131;28;45702;-73
2022/02/18 00:30:43;;;;;;;;;12.25;5.50;;;;;14.51;53.57;100942.25;5010345;28;45407;-73
2022/02/18 00:33:08;;;;;;;;;6.25;6.00;;;;;14.49;53.38;100944.16;5019983;28;45293;-73
2022/02/18 00:35:34;;;;;;;;;7.25;5.00;;;;;14.53;53.87;100943.06;5020645;28;45250;-73
2022/02/18 00:38:00;;;;;;;;;6.75;4.75;;;;;14.43;53.62;100922.00;5022695;28;45322;-73
2022/02/18 00:40:26;;;;;;;;;7.75;6.00;;;;;14.48;53.92;100932.50;5026341;28;45253;-73
2022/02/18 00:42:52;;;;;;;;;5.50;4.25;;;;;14.52;53.82;100925.22;5008176;28;45993;-74
2022/02/18 00:45:17;;;;;;;;;7.75;6.50;;;;;14.52;53.98;100909.09;5021890;28;45267;-73
2022/02/18 00:47:43;;;;;;;;;5.50;4.00;;;;;14.45;54.17;100904.00;5001760;28;45441;-74
2022/02/18 00:50:09;;;;;;;;;9.00;6.50;;;;;14.44;54.21;100885.25;5004293;28;45482;-73
2022/02/18 00:52:35;;;;;;;;;7.00;5.75;;;;;14.53;54.44;100878.59;5007512;28;47301;-73
2022/02/18 00:55:01;;;;;;;;;4.75;4.50;;;;;14.43;54.73;100867.41;5007887;28;46084;-73
2022/02/18 00:57:26;;;;;;;;;12.00;6.25;;;;;14.49;54.65;100877.00;5009158;28;45518;-73
2022/02/18 00:59:52;;;;;;;;;6.75;5.00;;;;;14.41;54.99;100856.72;5012898;28;45584;-73
2022/02/18 01:02:18;;;;;;;;;7.00;5.75;;;;;14.40;54.60;100857.69;5003304;28;48288;-73
2022/02/18 01:04:43;;;;;;;;;9.75;7.00;;;;;14.45;54.87;100861.03;5012659;28;45345;-73
2022/02/18 01:07:08;;;;;;;;;11.75;6.00;;;;;14.45;54.87;100860.16;5010236;28;45409;-73
2022/02/18 01:09:34;;;;;;;;;7.50;5.50;;;;;14.34;54.96;100847.22;5009962;28;45468;-74
2022/02/18 01:11:59;;;;;;;;;9.50;6.00;;;;;14.39;55.17;100850.56;5011639;28;45258;-73
2022/02/18 01:14:25;;;;;;;;;8.00;5.50;;;;;14.40;55.09;100846.03;5021129;28;45325;-74
2022/02/18 01:16:52;;;;;;;;;5.25;4.00;;;;;14.35;55.32;100835.53;5010761;28;45955;-74
2022/02/18 01:19:18;;;;;;;;;5.25;5.00;;;;;14.36;55.21;100833.72;5017996;28;45532;-74
2022/02/18 01:21:44;;;;;;;;;4.75;4.75;;;;;14.27;55.46;100806.34;4999954;28;47347;-74
2022/02/18 01:24:09;;;;;;;;;8.00;7.00;;;;;14.35;55.71;100810.47;5004446;28;45420;-74
2022/02/18 01:26:35;;;;;;;;;7.00;5.50;;;;;14.21;55.94;100781.59;5025038;28;45506;-74
2022/02/18 01:29:01;;;;;;;;;11.25;5.50;;;;;14.35;55.68;100806.00;4996251;28;45572;-73
2022/02/18 01:31:27;;;;;;;;;6.00;5.75;;;;;14.30;56.01;100805.34;5020691;28;45377;-74
2022/02/18 01:33:57;;;;;;;;;7.75;4.00;;;;;14.22;56.39;100778.00;5020928;28;45405;-74
2022/02/18 01:36:23;;;;;;;;;8.00;5.00;;;;;14.27;56.72;100784.88;5020035;28;45289;-74
2022/02/18 01:38:49;;;;;;;;;7.50;4.50;;;;;14.18;56.75;100771.91;5017527;28;45386;-74
2022/02/18 01:41:14;;;;;;;;;6.00;3.75;;;;;14.21;57.36;100768.19;5018246;28;45670;-73
2022/02/18 01:43:52;;;;;;;;;8.25;4.75;;;;;14.22;57.86;100748.47;5003927;28;45909;-74
2022/02/18 01:46:18;;;;;;;;;9.00;6.00;;;;;14.19;58.28;100746.78;5017837;28;45419;-74
2022/02/18 01:48:43;;;;;;;;;5.50;5.25;;;;;14.20;58.70;100745.84;5007608;28;45561;-73
2022/02/18 01:51:10;;;;;;;;;7.25;5.75;;;;;14.17;58.84;100740.63;5009556;28;45117;-74
2022/02/18 01:53:37;;;;;;;;;7.00;5.50;;;;;14.09;59.07;100726.69;5017173;28;45521;-73
2022/02/18 01:56:02;;;;;;;;;7.75;6.75;;;;;14.12;59.08;100736.41;5021083;28;45329;-73
2022/02/18 01:58:28;;;;;;;;;6.00;6.00;;;;;14.14;59.62;100721.09;5002751;28;45452;-73
2022/02/18 02:00:53;;;;;;;;;7.50;6.75;;;;;14.14;59.93;100721.09;4998429;28;46969;-74
2022/02/18 02:03:20;;;;;;;;;7.25;5.25;;;;;14.09;60.31;100711.44;5020316;28;45376;-74
2022/02/18 02:05:46;;;;;;;;;7.75;6.50;;;;;14.03;60.37;100694.75;5020741;28;45350;-73
2022/02/18 02:08:13;;;;;;;;;6.75;6.00;;;;;14.11;60.76;100702.47;5018583;28;45574;-73
2022/02/18 02:10:43;;;;;;;;;5.75;5.25;;;;;13.98;61.02;100678.91;5018491;28;46173;-73
2022/02/18 02:13:08;;;;;;;;;10.00;7.75;;;;;14.08;60.60;100685.56;4998726;28;45744;-74
2022/02/18 02:15:34;;;;;;;;;9.75;8.25;;;;;14.15;60.87;100694.19;5003024;28;45593;-74
2022/02/18 02:18:03;;;;;;;;;8.00;8.00;;;;;14.14;61.22;100683.53;5002298;28;45461;-73
2022/02/18 02:20:29;;;;;;;;;8.25;6.50;;;;;14.16;61.25;100679.81;5010586;28;45468;-74
2022/02/18 02:22:55;;;;;;;;;5.25;5.25;;;;;14.20;61.76;100670.69;5016922;28;45257;-74
2022/02/18 02:25:20;;;;;;;;;6.25;5.25;;;;;14.17;61.89;100660.09;4998791;28;45444;-74
2022/02/18 02:27:45;;;;;;;;;5.75;5.75;;;;;14.20;62.22;100657.25;5024089;28;45355;-74
2022/02/18 02:30:15;;;;;;;;;5.00;4.25;;;;;14.14;62.15;100652.19;5014149;28;47936;-74
2022/02/18 02:32:40;;;;;;;;;4.25;4.25;;;;;14.18;62.00;100652.88;5012145;28;45421;-74
2022/02/18 02:35:07;;;;;;;;;4.50;3.75;;;;;14.13;62.33;100644.19;5004545;28;45325;-74
2022/02/18 02:37:32;;;;;;;;;5.00;3.50;;;;;14.15;62.28;100637.81;5008020;28;45882;-74
2022/02/18 02:39:57;;;;;;;;;4.00;4.00;;;;;14.16;62.71;100628.81;5007061;28;46319;-74
2022/02/18 02:42:23;;;;;;;;;5.75;3.25;;;;;14.23;62.79;100641.00;5018021;28;45395;-74
2022/02/18 02:44:49;;;;;;;;;3.75;3.00;;;;;14.23;62.99;100629.38;5009424;28;45321;-74
2022/02/18 02:47:14;;;;;;;;;5.50;3.00;;;;;14.17;62.86;100614.44;4998984;28;45512;-74
2022/02/18 02:49:40;;;;;;;;;3.00;3.00;;;;;14.23;63.18;100610.56;5019437;28;45299;-74
2022/02/18 02:52:05;;;;;;;;;5.00;4.00;;;;;14.23;63.17;100599.84;5010957;28;45405;-74
2022/02/18 02:54:31;;;;;;;;;3.50;2.50;;;;;14.25;63.47;100589.91;5016322;28;45408;-74
2022/02/18 02:56:57;;;;;;;;;5.00;4.00;;;;;14.27;63.64;100593.38;5001234;28;45447;-74
2022/02/18 02:59:23;;;;;;;;;4.25;3.00;;;;;14.24;63.37;100577.44;5018824;28;45633;-73
2022/02/18 03:01:49;;;;;;;;;4.25;3.00;;;;;14.23;63.69;100570.31;4985678;28;45428;-74
2022/02/18 03:04:15;;;;;;;;;5.25;5.00;;;;;14.30;63.61;100568.19;5018496;28;45452;-74
2022/02/18 03:06:40;;;;;;;;;4.00;2.50;;;;;14.25;64.18;100557.69;5006239;28;45453;-74
2022/02/18 03:09:10;;;;;;;;;4.00;3.00;;;;;14.30;64.21;100555.66;5015408;28;45371;-74
2022/02/18 03:11:37;;;;;;;;;3.00;3.00;;;;;14.25;64.22;100541.59;5019425;28;45230;-74
2022/02/18 03:14:04;;;;;;;;;4.00;4.00;;;;;14.31;64.33;100551.13;5009110;28;45287;-74
2022/02/18 03:16:29;;;;;;;;;3.00;3.00;;;;;14.29;64.81;100539.63;5012290;28;45555;-74
2022/02/18 03:18:55;;;;;;;;;3.75;3.75;;;;;14.34;64.77;100535.72;5004350;28;46297;-73
2022/02/18 03:21:20;;;;;;;;;3.00;3.00;;;;;14.29;64.61;100523.50;5017398;28;45528;-74
2022/02/18 03:23:46;;;;;;;;;3.00;3.00;;;;;14.27;64.78;100537.00;5018338;28;45475;-74
2022/02/18 03:26:16;;;;;;;;;3.00;3.00;;;;;14.35;65.03;100534.81;5022244;28;45754;-74
2022/02/18 03:28:43;;;;;;;;;2.00;2.00;;;;;14.25;65.57;100514.75;5017824;28;46232;-74
2022/02/18 03:31:09;;;;;;;;;2.00;2.00;;;;;14.39;65.27;100528.31;5017008;28;45954;-74
2022/02/18 03:33:37;;;;;;;;;2.00;1.00;;;;;14.35;65.43;100515.13;5016568;28;45511;-74
2022/02/18 03:36:03;;;;;;;;;1.75;1.75;;;;;14.36;65.72;100517.72;5016695;28;45392;-74
2022/02/18 03:38:28;;;;;;;;;0.00;0.00;;;;;14.42;65.73;100524.63;5018720;28;45359;-74
2022/02/18 03:40:53;;;;;;;;;0.00;0.00;;;;;14.40;65.95;100513.06;5026886;28;45442;-74
2022/02/18 03:43:19;;;;;;;;;1.50;0.75;;;;;14.43;65.92;100516.47;5022657;28;45495;-74
2022/02/18 03:45:44;;;;;;;;;1.00;1.00;;;;;14.35;65.76;100505.25;5001317;28;45717;-74
2022/02/18 03:48:10;;;;;;;;;0.00;0.00;;;;;14.45;65.98;100508.34;5022530;28;45329;-74
2022/02/18 03:50:35;;;;;;;;;0.00;0.00;;;;;14.39;65.83;100506.81;5021323;28;45364;-74
2022/02/18 03:53:03;;;;;;;;;0.00;0.00;;;;;14.40;65.50;100500.53;5013744;28;45196;-74
2022/02/18 03:55:28;;;;;;;;;0.00;0.00;;;;;14.43;66.04;100492.31;5013430;28;45443;-74
2022/02/18 03:57:53;;;;;;;;;1.00;0.00;;;;;14.41;65.55;100483.44;5004591;28;48328;-74
2022/02/18 04:00:19;;;;;;;;;0.25;0.00;;;;;14.54;66.15;100501.63;5017018;28;45395;-74
2022/02/18 04:02:45;;;;;;;;;0.00;0.00;;;;;14.53;65.72;100502.56;5003798;28;45786;-74
2022/02/18 04:05:10;;;;;;;;;0.00;0.00;;;;;14.56;65.77;100497.03;5009707;28;45445;-74
2022/02/18 04:07:36;;;;;;;;;0.00;0.00;;;;;14.50;66.21;100478.53;5021897;28;45883;-74
2022/02/18 04:10:01;;;;;;;;;0.00;0.00;;;;;14.59;65.92;100484.31;5019893;28;45384;-74
2022/02/18 04:12:27;;;;;;;;;0.00;0.00;;;;;14.60;66.19;100483.38;5015610;28;45403;-73
2022/02/18 04:14:52;;;;;;;;;0.00;0.00;;;;;14.54;66.22;100462.19;5013096;28;45349;-74
2022/02/18 04:17:17;;;;;;;;;0.75;0.00;;;;;14.62;65.82;100468.06;5022163;28;45384;-74
2022/02/18 04:19:43;;;;;;;;;0.00;0.00;;;;;14.56;65.58;100459.41;5021685;28;45423;-74
2022/02/18 04:22:08;;;;;;;;;0.00;0.00;;;;;14.64;65.73;100468.81;5021932;28;45300;-74
2022/02/18 04:24:33;;;;;;;;;0.00;0.00;;;;;14.62;65.62;100460.00;5020238;28;45431;-74
2022/02/18 04:26:59;;;;;;;;;0.00;0.00;;;;;14.66;65.67;100460.69;5019479;28;45261;-74
2022/02/18 04:29:24;;;;;;;;;0.00;0.00;;;;;14.66;65.47;100446.41;4997797;28;45417;-74
2022/02/18 04:31:50;;;;;;;;;0.00;0.00;;;;;14.67;65.48;100449.00;5014147;28;45301;-73
2022/02/18 04:34:15;;;;;;;;;1.00;0.00;;;;;14.59;65.39;100435.13;5021406;28;45432;-73
2022/02/18 04:36:41;;;;;;;;;0.00;0.00;;;;;14.64;65.50;100428.53;5019566;28;45908;-74
2022/02/18 04:39:07;;;;;;;;;0.00;0.00;;;;;14.60;65.65;100431.47;5029579;28;45555;-74
2022/02/18 04:41:33;;;;;;;;;0.00;0.00;;;;;14.61;65.38;100433.22;5008933;28;45399;-74
2022/02/18 04:44:02;;;;;;;;;0.00;0.00;;;;;14.50;65.50;100403.34;5003141;28;45408;-74
2022/02/18 04:46:27;;;;;;;;;0.00;0.00;;;;;14.61;65.38;100425.16;5021370;28;45558;-74
2022/02/18 04:48:54;;;;;;;;;0.00;0.00;;;;;14.63;65.48;100425.94;5011363;28;45345;-74
2022/02/18 04:51:20;;;;;;;;;0.00;0.00;;;;;14.58;65.33;100407.38;5009063;28;45222;-74
2022/02/18 04:53:45;;;;;;;;;0.00;0.00;;;;;14.61;65.24;100411.72;5019425;28;45349;-73
2022/02/18 04:56:10;;;;;;;;;0.00;0.00;;;;;14.56;65.34;100409.25;5016563;28;45439;-73
2022/02/18 04:58:37;;;;;;;;;0.00;0.00;;;;;14.50;65.64;100397.97;5003048;28;45642;-74
2022/02/18 05:01:04;;;;;;;;;0.00;0.00;;;;;14.44;65.51;100378.56;5001511;28;45307;-74
2022/02/18 05:03:30;;;;;;;;;0.00;0.00;;;;;14.60;65.62;100397.44;5003470;28;45705;-74
2022/02/18 05:05:55;;;;;;;;;0.00;0.00;;;;;14.57;65.58;100392.19;5019874;28;45335;-74
2022/02/18 05:08:21;;;;;;;;;0.00;0.00;;;;;14.61;65.25;100390.22;5016925;28;45368;-74
2022/02/18 05:10:46;;;;;;;;;0.00;0.00;;;;;14.63;65.52;100393.69;5016106;28;45807;-74
2022/02/18 05:13:12;;;;;;;;;0.00;0.00;;;;;14.62;65.43;100400.03;5012304;28;45389;-74
2022/02/18 05:15:37;;;;;;;;;0.75;0.00;;;;;14.49;65.64;100361.34;5020045;28;45305;-74
2022/02/18 05:18:04;;;;;;;;;0.75;0.00;;;;;14.61;65.13;100368.75;5008781;28;45372;-74
2022/02/18 05:20:30;;;;;;;;;0.00;0.00;;;;;14.57;65.66;100353.72;5018999;28;45396;-74
2022/02/18 05:22:56;;;;;;;;;0.00;0.00;;;;;14.56;65.39;100362.72;5001321;28;45904;-74
2022/02/18 05:25:21;;;;;;;;;0.00;0.00;;;;;14.57;65.31;100349.22;5013601;28;45553;-74
2022/02/18 05:27:47;;;;;;;;;0.00;0.00;;;;;14.54;65.53;100340.47;5026364;28;45293;-73
2022/02/18 05:30:12;;;;;;;;;1.00;0.00;;;;;14.62;65.55;100357.06;5013620;28;45249;-73
2022/02/18 05:32:38;;;;;;;;;0.50;0.00;;;;;14.55;65.27;100340.38;5013579;28;45294;-73
2022/02/18 05:35:04;;;;;;;;;0.00;0.00;;;;;14.62;65.47;100343.63;5002846;28;48224;-74
2022/02/18 05:37:29;;;;;;;;;0.50;0.00;;;;;14.53;65.64;100333.34;5021347;28;45683;-74
2022/02/18 05:39:55;;;;;;;;;0.00;0.00;;;;;14.55;65.36;100331.44;5021459;28;45491;-74
2022/02/18 05:42:20;;;;;;;;;0.00;0.00;;;;;14.60;65.67;100338.34;5013396;28;45348;-74
2022/02/18 05:44:46;;;;;;;;;0.00;0.00;;;;;14.60;65.60;100340.13;5016177;28;45383;-74
2022/02/18 05:47:11;;;;;;;;;0.50;0.00;;;;;14.60;65.43;100316.84;5018692;28;45582;-74
2022/02/18 05:49:36;;;;;;;;;0.00;0.00;;;;;14.56;65.50;100311.69;5015763;28;45530;-74
2022/02/18 05:52:02;;;;;;;;;0.00;0.00;;;;;14.58;65.55;100304.41;5016311;28;45448;-73
2022/02/18 05:54:27;;;;;;;;;0.00;0.00;;;;;14.50;65.58;100287.84;5006946;28;48248;-74
2022/02/18 05:56:52;;;;;;;;;0.50;0.50;;;;;14.54;65.63;100284.91;5003189;28;45797;-74
2022/02/18 05:59:19;;;;;;;;;0.00;0.00;;;;;14.52;65.48;100280.59;5011736;28;45591;-74
2022/02/18 06:01:45;;;;;;;;;0.00;0.00;;;;;14.50;65.29;100272.63;5009723;28;45298;-75
2022/02/18 06:04:12;;;;;;;;;0.00;0.00;;;;;14.59;65.42;100277.50;4989599;28;48568;-74
2022/02/18 06:06:39;;;;;;;;;1.00;0.00;;;;;14.48;65.42;100266.47;4999875;28;45373;-74
2022/02/18 06:09:04;;;;;;;;;1.00;0.00;;;;;14.24;65.37;100229.28;5001485;28;45393;-74
2022/02/18 06:11:30;;;;;;;;;0.00;0.00;;;;;14.42;65.41;100246.19;5018797;28;45422;-74
2022/02/18 06:13:56;;;;;;;;;0.00;0.00;;;;;14.39;65.76;100242.81;5020508;28;45579;-74
2022/02/18 06:16:22;;;;;;;;;0.00;0.00;;;;;14.51;65.66;100252.00;5011663;28;45362;-74
2022/02/18 06:18:48;;;;;;;;;0.00;0.00;;;;;14.58;65.59;100261.44;5018093;28;45344;-74
2022/02/18 06:21:13;;;;;;;;;0.00;0.00;;;;;14.53;65.69;100247.41;5019668;28;45471;-74
2022/02/18 06:23:38;;;;;;;;;0.00;0.00;;;;;14.45;65.70;100243.34;4990262;28;48130;-74
2022/02/18 06:26:04;;;;;;;;;0.00;0.00;;;;;14.53;65.53;100242.03;5021736;28;45314;-74
2022/02/18 06:28:29;;;;;;;;;0.25;0.25;;;;;14.53;65.62;100250.09;5025215;28;45390;-74
2022/02/18 06:30:54;;;;;;;;;1.50;0.00;;;;;14.48;65.54;100231.53;5019762;28;45429;-74
2022/02/18 06:33:20;;;;;;;;;0.00;0.00;;;;;14.54;65.61;100233.03;5005696;28;46895;-74
2022/02/18 06:35:45;;;;;;;;;0.00;0.00;;;;;14.52;65.64;100240.31;5017996;28;45302;-74
2022/02/18 06:38:11;;;;;;;;;1.75;0.00;;;;;14.51;65.46;100235.88;5015757;28;45717;-74
2022/02/18 06:40:37;;;;;;;;;0.00;0.00;;;;;14.54;65.70;100235.72;4998502;28;45762;-76
2022/02/18 06:43:03;;;;;;;;;0.00;0.00;;;;;14.51;65.49;100227.84;5018371;28;45420;-77
2022/02/18 06:45:28;;;;;;;;;0.00;0.00;;;;;14.30;65.52;100181.56;5012240;28;45609;-76
2022/02/18 06:47:54;;;;;;;;;1.00;0.00;;;;;14.45;65.37;100205.75;4982227;28;45419;-76
2022/02/18 06:50:20;;;;;;;;;1.00;0.00;;;;;14.52;65.21;100216.16;5014808;28;45826;-76
2022/02/18 06:52:48;;;;;;;;;0.00;0.00;;;;;14.55;65.34;100210.56;5007730;28;47107;-76
2022/02/18 06:55:15;;;;;;;;;0.00;0.00;;;;;14.45;65.11;100199.53;5013834;28;45524;-77
2022/02/18 06:57:42;;;;;;;;;2.25;1.75;;;;;14.52;65.29;100211.63;5006813;28;45736;-76
2022/02/18 07:00:11;;;;;;;;;2.00;0.25;;;;;14.44;65.19;100179.84;5004791;28;45743;-75
2022/02/18 07:02:38;;;;;;;;;0.75;0.00;;;;;14.36;65.14;100165.97;4999372;28;47283;-73
2022/02/18 07:05:08;;;;;;;;;0.00;0.00;;;;;14.30;65.29;100146.69;4988602;28;45468;-73
2022/02/18 07:07:34;;;;;;;;;0.25;0.00;;;;;14.51;65.16;100177.66;5012289;28;45547;-73
2022/02/18 07:10:01;;;;;;;;;0.00;0.00;;;;;14.36;65.33;100147.19;5018892;28;45457;-73
2022/02/18 07:12:27;;;;;;;;;1.00;0.00;;;;;14.57;64.71;100190.75;5011217;28;46165;-74
2022/02/18 07:14:56;;;;;;;;;1.00;0.00;;;;;14.29;65.03;100144.97;5014934;28;45612;-74
2022/02/18 07:17:27;;;;;;;;;0.00;0.00;;;;;14.39;64.58;100157.75;5019526;28;45246;-74
2022/02/18 07:19:53;;;;;;;;;1.00;0.00;;;;;14.33;65.06;100155.41;5012608;28;45348;-74
2022/02/18 07:22:20;;;;;;;;;0.00;0.00;;;;;14.24;64.99;100142.53;4999543;28;45610;-73
2022/02/18 07:24:47;;;;;;;;;1.00;0.00;;;;;14.54;64.95;100179.31;5018041;28;45522;-74
2022/02/18 07:27:13;;;;;;;;;1.00;1.00;;;;;14.14;64.94;100109.97;5030614;28;45601;-74
2022/02/18 07:29:39;;;;;;;;;1.00;1.00;;;;;14.13;64.88;100091.28;4984897;28;46043;-74
2022/02/18 07:32:05;;;;;;;;;1.50;1.00;;;;;14.26;64.98;100132.56;5008272;28;45608;-74
2022/02/18 07:34:31;;;;;;;;;0.00;0.00;;;;;14.54;64.54;100165.91;5018804;28;45264;-74
2022/02/18 07:36:56;;;;;;;;;0.00;0.00;;;;;14.42;64.93;100135.25;4988971;28;45424;-74
2022/02/18 07:39:21;;;;;;;;;0.00;0.00;;;;;14.49;64.75;100151.88;5015656;28;45666;-74
2022/02/18 07:41:47;;;;;;;;;1.00;1.00;;;;;14.38;64.96;100125.63;5011474;28;45513;-77
2022/02/18 07:44:12;;;;;;;;;1.00;0.50;;;;;14.50;64.44;100142.84;5007988;28;45375;-74
2022/02/18 07:46:38;;;;;;;;;0.00;0.00;;;;;14.27;64.55;100094.91;4997379;28;47625;-74
2022/02/18 07:49:03;;;;;;;;;0.25;0.25;;;;;14.38;64.67;100128.31;5009019;28;45533;-74
2022/02/18 07:51:29;;;;;;;;;1.00;0.00;;;;;14.32;64.64;100112.56;4998486;28;45565;-75
2022/02/18 07:53:55;;;;;;;;;2.00;1.00;;;;;14.30;64.72;100114.47;5010769;28;45523;-75
2022/02/18 07:56:20;;;;;;;;;0.00;0.00;;;;;14.36;64.54;100130.22;5013927;28;45280;-74
2022/02/18 07:58:46;;;;;;;;;0.00;0.00;;;;;14.18;64.64;100105.31;4984978;28;45484;-74
2022/02/18 08:01:17;;;;;;;;;0.00;0.00;;;;;14.54;64.85;100155.16;5007460;28;47518;-76
2022/02/18 08:03:45;;;;;;;;;0.50;0.00;;;;;14.56;64.59;100150.53;5004775;28;45558;-77
2022/02/18 08:06:11;;;;;;;;;0.00;0.00;;;;;14.51;64.56;100125.78;5013460;28;45581;-77
2022/02/18 08:08:38;;;;;;;;;0.75;0.00;;;;;14.52;64.30;100131.06;5009363;28;45597;-75
2022/02/18 08:11:04;;;;;;;;;0.00;0.00;;;;;14.40;64.41;100099.53;5014238;28;46300;-77
2022/02/18 08:13:30;;;;;;;;;1.00;0.00;;;;;14.58;64.31;100124.47;5003542;28;45768;-76
2022/02/18 08:15:56;;;;;;;;;0.00;0.00;;;;;14.60;64.37;100127.94;5014984;28;45504;-76
2022/02/18 08:18:21;;;;;;;;;1.50;0.00;;;;;14.58;64.50;100116.41;5013824;28;45662;-77
2022/02/18 08:20:47;;;;;;;;;1.00;1.00;;;;;14.42;64.45;100082.41;5009780;28;45365;-77
2022/02/18 08:23:13;;;;;;;;;0.00;0.00;;;;;14.44;64.35;100085.84;4985916;28;45878;-77
2022/02/18 08:25:38;;;;;;;;;0.00;0.00;;;;;14.57;64.27;100107.50;5007761;28;45568;-77
2022/02/18 08:28:04;;;;;;;;;1.25;1.00;;;;;14.56;64.41;100100.38;5007623;28;45738;-77
2022/02/18 08:30:29;;;;;;;;;0.00;0.00;;;;;14.54;64.58;100091.56;4999216;28;47293;-77
2022/02/18 08:32:55;;;;;;;;;1.00;0.00;;;;;14.46;64.56;100075.88;5005239;28;45694;-77
2022/02/18 08:35:21;;;;;;;;;0.00;0.00;;;;;14.37;64.50;100057.66;5012999;28;45340;-77
2022/02/18 08:37:46;;;;;;;;;1.00;0.00;;;;;14.60;64.32;100090.34;5018344;28;45447;-77
2022/02/18 08:40:11;;;;;;;;;1.00;0.00;;;;;14.58;64.09;100074.31;5013898;28;45656;-77
2022/02/18 08:42:37;;;;;;;;;1.25;0.00;;;;;14.60;64.12;100082.28;5001819;28;45433;-77
2022/02/18 08:45:03;;;;;;;;;3.00;0.00;;;;;14.58;64.42;100068.06;4996767;28;45535;-77
2022/02/18 08:47:29;;;;;;;;;0.00;0.00;;;;;14.53;64.41;100068.31;5017051;28;45506;-71
2022/02/18 08:49:54;;;;;;;;;2.00;0.25;;;;;14.54;64.57;100075.44;5016918;28;46600;-72
2022/02/18 08:52:20;;;;;;;;;1.75;0.00;;;;;14.38;64.54;100064.75;5003955;28;45711;-76
2022/02/18 08:54:45;;;;;;;;;0.00;0.00;;;;;14.48;64.49;100083.84;5019688;28;45428;-77
2022/02/18 08:57:11;;;;;;;;;0.00;0.00;;;;;14.56;64.47;100100.38;5020697;28;45564;-75
2022/02/18 08:59:40;;;;;;;;;0.00;0.00;;;;;14.63;64.67;100104.47;5002839;28;47915;-75
2022/02/18 09:02:14;;;;;;;;;0.75;0.00;;;;;14.59;64.39;100108.28;4996115;28;45429;-74
2022/02/18 09:04:39;;;;;;;;;1.00;0.00;;;;;14.45;64.28;100070.63;4992324;28;45427;-74
2022/02/18 09:07:05;;;;;;;;;1.25;1.00;;;;;14.53;64.40;100084.44;5011932;28;45432;-74
2022/02/18 09:09:30;;;;;;;;;0.00;0.00;;;;;14.64;64.66;100094.59;5000282;28;47158;-76
2022/02/18 09:11:55;;;;;;;;;0.00;0.00;;;;;14.53;64.78;100078.22;5013463;28;45309;-74
2022/02/18 09:14:21;;;;;;;;;1.00;0.00;;;;;14.41;64.51;100036.84;5018111;28;45807;-74
2022/02/18 09:16:46;;;;;;;;;1.00;1.00;;;;;14.51;64.67;100064.00;5013938;28;45688;-74
2022/02/18 09:22:24;;;;;;;;;0.00;0.00;;;;;14.23;64.93;100002.09;4993770;28;45386;-74
2022/02/18 09:24:50;;;;;;;;;0.00;0.00;;;;;14.48;65.30;100031.97;5015586;28;45383;-71
2022/02/18 09:27:15;;;;;;;;;0.00;0.00;;;;;14.58;65.04;100060.00;5022579;28;45676;-74
2022/02/18 09:29:40;;;;;;;;;1.00;0.00;;;;;14.40;64.97;100019.88;5014965;28;45262;-74
2022/02/18 09:32:06;;;;;;;;;0.00;0.00;;;;;14.31;65.07;99998.09;5019884;28;45380;-74
2022/02/18 09:34:32;;;;;;;;;0.25;0.00;;;;;14.45;65.34;100025.84;5011864;28;45482;-77
2022/02/18 09:36:58;;;;;;;;;0.00;0.00;;;;;14.42;65.84;100026.00;5009055;28;45333;-78
2022/02/18 09:39:26;;;;;;;;;0.00;0.00;;;;;14.52;65.73;100037.06;5010326;28;45533;-74
2022/02/18 09:41:52;;;;;;;;;1.00;0.00;;;;;14.42;66.12;100015.28;5013559;28;45614;-73
2022/02/18 09:44:19;;;;;;;;;0.00;0.00;;;;;14.42;66.10;100015.28;5000699;28;45408;-75
2022/02/18 09:46:46;;;;;;;;;0.75;0.75;;;;;14.65;66.49;100058.72;5012714;28;45376;-68
2022/02/18 09:52:40;;;;;;;;;1.00;1.00;;;;;14.40;66.48;100000.19;4976658;28;45423;-73
2022/02/18 09:55:06;;;;;;;;;0.00;0.00;;;;;14.34;66.69;99998.75;5017932;28;45399;-73
2022/02/18 10:00:48;;;;;;;;;0.00;0.00;;;;;14.37;66.92;99998.56;5013082;28;46558;-71
2022/02/18 10:03:14;;;;;;;;;19.25;19.25;;;;;14.50;67.07;100027.38;5016366;28;45511;-77
2022/02/18 10:05:40;;;;;;;;;64.00;52.50;;;;;14.58;66.93;100025.09;5015373;28;45451;-71
2022/02/18 10:08:54;;;;;;;;;1.00;1.00;;;;;14.58;67.13;100015.22;4990143;28;45450;-72
2022/02/18 10:12:02;;;;;;;;;;;;;;;;;;;;;
2022/02/18 10:15:03;;;;;;;;;0.00;0.00;;;;;14.51;66.95;100010.31;5014151;28;45753;-72
2022/02/18 10:21:22;;;;;;;;;;;;;;;;;;;;;
2022/02/18 10:23:52;;;;;;;;;0.00;0.00;;;;;14.21;67.77;99947.63;4970850;28;75284;-71
2022/02/18 10:27:17;;;;;;;;;;;;;;;;;;;;;
2022/02/18 10:30:06;;;;;;;;;0.00;0.00;;;;;14.50;67.39;99997.81;5006770;28;67720;-73
2022/02/18 10:32:39;;;;;;;;;0.00;0.00;;;;;14.21;67.40;99974.47;5015346;28;45486;-71
2022/02/18 10:35:05;;;;;;;;;0.00;0.00;;;;;14.49;67.69;100001.50;5007619;28;45520;-74
2022/02/18 10:37:33;;;;;;;;;0.00;0.00;;;;;14.47;67.72;99998.88;5010288;28;45457;-72
2022/02/18 10:40:16;;;;;;;;;1.00;0.00;;;;;14.16;67.91;99952.41;5001109;28;45478;-72
2022/02/18 10:42:43;;;;;;;;;0.00;0.00;;;;;14.17;67.39;99945.22;5006229;28;45453;-74
2022/02/18 10:45:21;;;;;;;;;0.00;0.00;;;;;14.33;67.75;99978.22;5017400;28;45610;-71
2022/02/18 10:47:48;;;;;;;;;0.00;0.00;;;;;14.46;67.68;99994.47;5018449;28;45468;-72
2022/02/18 10:50:21;;;;;;;;;0.00;0.00;;;;;14.51;67.62;100008.47;5018228;28;45531;-72
2022/02/18 10:53:18;;;;;;;;;0.00;0.00;;;;;14.50;67.89;99990.66;4990993;28;45625;-71
2022/02/18 10:56:00;;;;;;;;;0.00;0.00;;;;;14.16;67.50;99928.25;5000263;28;45481;-70
2022/02/18 10:58:34;;;;;;;;;1.00;0.00;;;;;14.42;67.46;99966.94;5000723;28;45300;-71
2022/02/18 11:01:25;;;;;;;;;0.00;0.00;;;;;14.52;67.99;99971.75;5003671;28;45644;-71
2022/02/18 11:03:52;;;;;;;;;0.00;0.00;;;;;14.52;67.81;99975.31;5002501;28;45642;-72
2022/02/18 11:06:25;;;;;;;;;0.00;0.00;;;;;14.35;67.98;99948.59;5013272;28;46339;-72
2022/02/18 11:08:59;;;;;;;;;0.00;0.00;;;;;14.49;67.89;99980.84;4996303;28;46107;-72
2022/02/18 11:11:31;;;;;;;;;0.00;0.00;;;;;14.33;67.39;99947.84;5010742;28;45526;-72
2022/02/18 11:14:32;;;;;;;;;1.00;1.00;;;;;14.46;67.65;99964.94;5008481;28;45707;-72
2022/02/18 11:17:23;;;;;;;;;0.00;0.00;;;;;14.32;67.73;99938.06;4998262;28;45578;-72
2022/02/18 11:19:51;;;;;;;;;0.00;0.00;;;;;14.19;67.79;99919.16;4994199;28;45239;-72
2022/02/18 11:22:38;;;;;;;;;;;;;;;;;;;;;
2022/02/18 11:25:14;;;;;;;;;;;;;;;;;;;;;
2022/02/18 11:27:50;;;;;;;;;1.00;0.00;;;;;14.44;67.46;99950.75;5018548;28;75239;-73
2022/02/18 11:34:04;;;;;;;;;;;;;;;;;;;;;
2022/02/18 11:40:41;;;;;;;;;0.00;0.00;;;;;14.60;68.20;99972.16;4992158;28;46655;-73
2022/02/18 11:43:46;;;;;;;;;;;;;;;;;;;;;
2022/02/18 11:46:51;;;;;;;;;;;;;;;;;;;;;
2022/02/18 11:53:13;;;;;;;;;;;;;;;;;;;;;
2022/02/18 11:59:26;;;;;;;;;;;;;;;;;;;;;
2022/02/18 12:01:57;;;;;;;;;2.00;0.50;;;;;14.53;69.38;99994.97;4976707;28;72853;-73
2022/02/18 12:05:06;;;;;;;;;0.00;0.00;;;;;14.43;69.72;100018.81;5002621;28;46219;-73
2022/02/18 12:09:07;;;;;;;;;;;;;;;;;;;;;
2022/02/18 12:18:59;;;;;;;;;;;;;;;;;;;;;
2022/02/18 12:25:01;;;;;;;;;5.50;5.50;;;;;13.97;66.27;100022.41;5003343;28;45924;-70
2022/02/18 12:27:28;;;;;;;;;26.25;24.75;;;;;14.07;66.51;100037.00;5014051;28;45511;-70